createdAt,value
2024-05-09T00:01:04.117Z,84.13
2024-05-09T00:03:33.942Z,84.26
2024-05-09T00:06:04.152Z,84.42
2024-05-09T00:08:34.531Z,84.40
2024-05-09T00:11:04.600Z,84.53
2024-05-09T00:13:37.014Z,84.52
2024-05-09T00:16:10.205Z,84.96
2024-05-09T00:18:40.290Z,84.64
2024-05-09T00:21:11.119Z,84.64
2024-05-09T00:23:41.347Z,84.76
2024-05-09T00:26:11.070Z,84.97
2024-05-09T00:28:43.601Z,84.93
2024-05-09T00:31:13.647Z,85.12
2024-05-09T00:33:43.480Z,84.99
2024-05-09T00:36:13.239Z,84.84
2024-05-09T00:38:43.376Z,84.95
2024-05-09T00:41:15.160Z,85.44
2024-05-09T00:43:49.002Z,85.23
2024-05-09T00:46:19.584Z,85.33
2024-05-09T00:48:49.699Z,85.27
2024-05-09T00:51:19.914Z,85.15
2024-05-09T00:53:50.901Z,85.07
2024-05-09T00:56:24.302Z,85.18
2024-05-09T00:58:57.846Z,85.32
2024-05-09T01:01:29.026Z,85.20
2024-05-09T01:03:59.517Z,85.23
2024-05-09T01:06:29.650Z,85.45
2024-05-09T01:08:59.368Z,85.58
2024-05-09T01:11:36.706Z,85.48
2024-05-09T01:14:09.162Z,85.83
2024-05-09T01:16:39.320Z,86.02
2024-05-09T01:19:23.268Z,85.96
2024-05-09T01:21:53.415Z,85.96
2024-05-09T01:24:25.674Z,85.58
2024-05-09T01:26:55.989Z,85.67
2024-05-09T01:29:26.011Z,85.99
2024-05-09T01:31:59.301Z,86.02
2024-05-09T01:34:31.359Z,86.60
2024-05-09T01:37:01.212Z,86.13
2024-05-09T01:39:33.410Z,86.72
2024-05-09T01:42:03.669Z,86.21
2024-05-09T01:44:33.904Z,86.32
2024-05-09T01:47:05.653Z,86.37
2024-05-09T01:49:40.982Z,86.84
2024-05-09T01:52:11.228Z,86.52
2024-05-09T01:54:43.480Z,86.58
2024-05-09T01:57:13.605Z,86.59
2024-05-09T01:59:43.430Z,86.78
2024-05-09T02:02:13.623Z,87.13
2024-05-09T02:04:43.994Z,86.72
2024-05-09T02:07:14.056Z,87.28
2024-05-09T02:09:46.633Z,86.89
2024-05-09T02:12:16.716Z,87.45
2024-05-09T02:14:46.429Z,87.23
2024-05-09T02:17:16.425Z,87.40
2024-05-09T02:19:46.094Z,87.24
2024-05-09T02:22:15.963Z,87.36
2024-05-09T02:24:48.112Z,86.73
2024-05-09T02:27:18.245Z,86.85
2024-05-09T02:29:48.353Z,86.67
2024-05-09T02:32:18.309Z,87.10
2024-05-09T02:34:48.608Z,87.00
2024-05-09T02:37:16.124Z,87.10
2024-05-09T02:39:48.470Z,87.01
2024-05-09T02:42:15.960Z,87.32
2024-05-09T02:44:45.885Z,87.67
2024-05-09T02:47:13.006Z,87.36
2024-05-09T02:49:43.412Z,87.68
2024-05-09T02:52:10.649Z,87.73
2024-05-09T02:54:40.276Z,87.57
2024-05-09T02:57:10.006Z,87.96
2024-05-09T02:59:40.166Z,87.71
2024-05-09T03:02:07.296Z,87.52
2024-05-09T03:04:37.195Z,87.98
2024-05-09T03:07:04.805Z,88.19
2024-05-09T03:09:34.733Z,88.11
2024-05-09T03:12:01.811Z,88.46
2024-05-09T03:14:34.318Z,88.03
2024-05-09T03:17:01.520Z,87.78
2024-05-09T03:19:31.647Z,88.02
2024-05-09T03:21:59.316Z,88.17
2024-05-09T03:24:29.528Z,88.48
2024-05-09T03:26:56.619Z,88.20
2024-05-09T03:29:26.468Z,88.47
2024-05-09T03:31:56.399Z,88.57
2024-05-09T03:34:27.575Z,87.73
2024-05-09T03:36:57.193Z,87.63
2024-05-09T03:39:28.492Z,88.39
2024-05-09T03:41:58.168Z,88.21
2024-05-09T03:44:27.887Z,88.08
2024-05-09T03:47:00.319Z,87.81
2024-05-09T03:49:27.700Z,87.71
2024-05-09T03:51:57.331Z,87.43
2024-05-09T03:54:24.988Z,87.82
2024-05-09T03:56:55.152Z,87.77
2024-05-09T03:59:22.115Z,87.68
2024-05-09T04:01:52.607Z,87.62
2024-05-09T04:04:22.414Z,87.84
2024-05-09T04:06:52.250Z,87.74
2024-05-09T04:09:19.246Z,88.04
2024-05-09T04:11:49.424Z,87.81
2024-05-09T04:14:16.664Z,87.84
2024-05-09T04:16:46.578Z,87.61
2024-05-09T04:19:14.190Z,87.48
2024-05-09T04:21:46.968Z,87.53
2024-05-09T04:24:14.351Z,87.40
2024-05-09T04:26:44.319Z,87.67
2024-05-09T04:29:12.023Z,87.66
2024-05-09T04:31:41.922Z,88.10
2024-05-09T04:34:09.067Z,87.58
2024-05-09T04:36:41.631Z,87.57
2024-05-09T04:39:12.379Z,87.65
2024-05-09T04:41:42.043Z,87.71
2024-05-09T04:44:09.202Z,87.95
2024-05-09T04:46:39.752Z,88.12
2024-05-09T04:49:06.892Z,88.02
2024-05-09T04:51:37.914Z,88.25
2024-05-09T04:54:05.599Z,88.14
2024-05-09T04:56:39.638Z,88.24
2024-05-09T04:59:06.890Z,87.59
2024-05-09T05:01:37.208Z,88.01
2024-05-09T05:04:04.813Z,88.04
2024-05-09T05:06:35.096Z,88.15
2024-05-09T05:09:02.296Z,88.22
2024-05-09T05:11:32.241Z,88.38
2024-05-09T05:14:02.102Z,88.46
2024-05-09T05:16:32.316Z,88.96
2024-05-09T05:18:59.525Z,88.67
2024-05-09T05:21:29.797Z,89.59
2024-05-09T05:23:56.874Z,89.93
2024-05-09T05:26:27.857Z,89.83
2024-05-09T05:28:55.331Z,90.19
2024-05-09T05:31:27.807Z,90.38
2024-05-09T05:33:54.863Z,90.18
2024-05-09T05:36:24.820Z,90.84
2024-05-09T05:38:52.160Z,90.33
2024-05-09T05:41:22.662Z,90.57
2024-05-09T05:43:49.682Z,90.39
2024-05-09T05:46:19.728Z,90.71
2024-05-09T05:48:49.517Z,90.99
2024-05-09T05:51:19.605Z,91.01
2024-05-09T05:53:46.767Z,91.17
2024-05-09T05:56:16.623Z,91.05
2024-05-09T05:58:44.055Z,91.10
2024-05-09T06:01:14.778Z,91.11
2024-05-09T06:03:43.472Z,91.14
2024-05-09T06:06:16.718Z,91.41
2024-05-09T06:08:43.896Z,90.94
2024-05-09T06:11:14.075Z,91.37
2024-05-09T06:13:42.904Z,90.92
2024-05-09T06:16:12.711Z,91.06
2024-05-09T06:18:39.940Z,91.07
2024-05-09T06:21:10.426Z,90.83
2024-05-09T06:23:45.899Z,90.80
2024-05-09T06:26:15.572Z,90.82
2024-05-09T06:28:42.485Z,90.74
2024-05-09T06:31:12.479Z,90.93
2024-05-09T06:33:41.239Z,90.91
2024-05-09T06:36:11.529Z,90.58
2024-05-09T06:38:41.203Z,90.60
2024-05-09T06:41:11.327Z,90.62
2024-05-09T06:43:38.337Z,90.34
2024-05-09T06:46:08.298Z,90.34
2024-05-09T06:48:36.049Z,90.27
2024-05-09T06:51:06.178Z,90.29
2024-05-09T06:53:33.532Z,90.50
2024-05-09T06:56:06.282Z,90.47
2024-05-09T06:58:33.386Z,89.94
2024-05-09T07:01:04.043Z,89.81
2024-05-09T07:03:31.840Z,89.81
2024-05-09T07:06:02.245Z,90.22
2024-05-09T07:08:29.444Z,90.07
2024-05-09T07:10:59.120Z,89.58
2024-05-09T07:13:28.870Z,89.61
2024-05-09T07:15:58.723Z,89.47
2024-05-09T07:18:26.000Z,89.49
2024-05-09T07:20:55.715Z,89.04
2024-05-09T07:23:22.890Z,89.30
2024-05-09T07:25:54.083Z,88.59
2024-05-09T07:28:21.696Z,88.85
2024-05-09T07:30:53.928Z,88.29
2024-05-09T07:33:24.720Z,88.39
2024-05-09T07:35:54.994Z,88.78
2024-05-09T07:38:22.640Z,88.28
2024-05-09T07:40:52.494Z,88.46
2024-05-09T07:43:20.503Z,88.10
2024-05-09T07:45:58.215Z,88.53
2024-05-09T07:50:01.399Z,86.80
2024-05-09T07:53:52.571Z,86.35
2024-05-09T07:56:26.111Z,86.56
2024-05-09T07:58:54.088Z,86.02
2024-05-09T08:01:26.244Z,86.17
2024-05-09T08:03:56.724Z,85.75
2024-05-09T08:06:29.162Z,85.35
2024-05-09T08:08:57.898Z,84.99
2024-05-09T08:11:28.684Z,84.58
2024-05-09T08:13:55.963Z,84.52
2024-05-09T08:16:25.922Z,83.99
2024-05-09T08:18:58.900Z,81.94
2024-05-09T08:21:27.641Z,82.37
2024-05-09T08:23:57.798Z,82.31
2024-05-09T08:26:26.329Z,82.09
2024-05-09T08:28:55.853Z,81.63
2024-05-09T08:31:23.105Z,80.83
2024-05-09T08:33:53.017Z,80.86
2024-05-09T08:36:23.366Z,79.84
2024-05-09T08:38:56.376Z,79.74
2024-05-09T08:41:23.470Z,79.62
2024-05-09T08:43:53.512Z,78.88
2024-05-09T08:46:21.368Z,77.98
2024-05-09T08:48:52.687Z,78.88
2024-05-09T08:51:22.561Z,78.48
2024-05-09T08:53:52.474Z,78.71
2024-05-09T08:56:21.695Z,78.06
2024-05-09T08:58:52.352Z,77.46
2024-05-09T09:01:20.321Z,76.51
2024-05-09T09:03:51.780Z,76.43
2024-05-09T09:06:25.437Z,75.21
2024-05-09T09:08:55.566Z,74.60
2024-05-09T09:11:22.639Z,73.93
2024-05-09T09:13:52.674Z,73.34
2024-05-09T09:16:20.979Z,72.79
2024-05-09T09:18:51.292Z,72.62
2024-05-09T09:21:21.441Z,72.35
2024-05-09T09:23:51.083Z,72.03
2024-05-09T09:26:21.969Z,71.86
2024-05-09T09:28:49.786Z,72.28
2024-05-09T09:31:21.750Z,71.15
2024-05-09T09:33:49.962Z,70.84
2024-05-09T09:36:20.668Z,71.12
2024-05-09T09:38:52.172Z,71.04
2024-05-09T09:41:28.628Z,71.96
2024-05-09T09:43:58.256Z,72.71
2024-05-09T09:46:30.503Z,71.77
2024-05-09T09:48:57.848Z,71.57
2024-05-09T09:51:28.883Z,71.28
2024-05-09T09:54:00.703Z,69.98
2024-05-09T09:56:32.528Z,67.36
2024-05-09T09:59:02.837Z,67.82
2024-05-09T10:01:34.705Z,67.38
2024-05-09T10:04:05.009Z,66.26
2024-05-09T10:06:36.497Z,64.49
2024-05-09T10:09:06.464Z,63.37
2024-05-09T10:11:45.032Z,63.06
2024-05-09T10:14:20.821Z,62.33
2024-05-09T10:16:50.877Z,61.42
2024-05-09T10:19:28.542Z,57.75
2024-05-09T10:22:06.276Z,58.00
2024-05-09T10:24:50.247Z,57.14
2024-05-09T10:27:29.654Z,57.15
2024-05-09T10:29:58.007Z,56.65
2024-05-09T10:32:29.833Z,55.56
2024-05-09T10:35:00.956Z,53.66
2024-05-09T10:37:31.819Z,52.54
2024-05-09T10:40:02.692Z,52.10
2024-05-09T10:42:34.754Z,51.53
2024-05-09T10:45:02.507Z,51.88
2024-05-09T10:47:32.864Z,51.50
2024-05-09T10:50:00.224Z,52.12
2024-05-09T10:52:30.221Z,52.54
2024-05-09T10:54:57.171Z,52.64
2024-05-09T10:57:29.897Z,52.60
2024-05-09T11:00:00.250Z,50.80
2024-05-09T11:02:30.475Z,51.00
2024-05-09T11:04:57.723Z,50.93
2024-05-09T11:07:29.526Z,51.49
2024-05-09T11:09:57.298Z,51.86
2024-05-09T11:12:30.384Z,51.81
2024-05-09T11:14:57.369Z,51.03
2024-05-09T11:17:28.387Z,49.82
2024-05-09T11:19:55.626Z,47.66
2024-05-09T11:22:25.916Z,46.14
2024-05-09T11:24:54.814Z,46.38
2024-05-09T11:27:26.598Z,46.36
2024-05-09T11:29:58.033Z,46.80
2024-05-09T11:32:33.012Z,47.51
2024-05-09T11:35:00.698Z,47.57
2024-05-09T11:37:31.845Z,47.20
2024-05-09T11:40:00.139Z,46.55
2024-05-09T11:42:30.199Z,46.27
2024-05-09T11:45:00.629Z,44.60
2024-05-09T11:47:32.585Z,44.94
2024-05-09T11:49:59.914Z,45.08
2024-05-09T11:52:30.142Z,46.34
2024-05-09T11:54:57.433Z,45.68
2024-05-09T11:57:28.827Z,45.93
2024-05-09T11:59:57.395Z,46.56
2024-05-09T12:02:29.798Z,45.00
2024-05-09T12:04:57.661Z,44.35
2024-05-09T12:07:27.706Z,43.88
2024-05-09T12:09:55.143Z,42.82
2024-05-09T12:12:24.738Z,42.88
2024-05-09T12:14:52.046Z,43.47
2024-05-09T12:17:21.844Z,43.19
2024-05-09T12:19:52.859Z,43.15
2024-05-09T12:22:22.600Z,43.34
2024-05-09T12:24:50.382Z,43.40
2024-05-09T12:27:20.106Z,41.70
2024-05-09T12:29:47.956Z,40.37
2024-05-09T12:32:17.951Z,39.28
2024-05-09T12:34:45.271Z,38.67
2024-05-09T12:37:21.678Z,36.71
2024-05-09T12:39:48.821Z,36.44
2024-05-09T12:42:26.749Z,36.81
2024-05-09T12:44:55.221Z,36.04
2024-05-09T12:47:26.562Z,33.88
2024-05-09T12:49:54.048Z,35.51
2024-05-09T12:52:28.610Z,36.77
2024-05-09T12:54:56.932Z,37.18
2024-05-09T12:57:26.958Z,36.43
2024-05-09T12:59:54.104Z,35.04
2024-05-09T13:02:24.068Z,34.11
2024-05-09T13:04:51.526Z,34.33
2024-05-09T13:07:21.279Z,32.59
2024-05-09T13:09:51.027Z,31.22
2024-05-09T13:12:21.606Z,29.80
2024-05-09T13:14:49.812Z,29.51
2024-05-09T13:17:20.191Z,30.39
2024-05-09T13:19:47.162Z,29.09
2024-05-09T13:22:18.051Z,28.55
2024-05-09T13:24:45.526Z,28.22
2024-05-09T13:27:17.856Z,27.97
2024-05-09T13:29:44.900Z,29.71
2024-05-09T13:32:14.848Z,31.43
2024-05-09T13:34:41.881Z,31.54
2024-05-09T13:37:11.979Z,29.89
2024-05-09T13:39:39.121Z,28.54
2024-05-09T13:42:09.268Z,27.49
2024-05-09T13:44:41.634Z,25.94
2024-05-09T13:47:12.464Z,25.72
2024-05-09T13:49:39.667Z,24.95
2024-05-09T13:52:10.223Z,24.29
2024-05-09T13:54:37.297Z,23.10
2024-05-09T13:57:07.810Z,23.77
2024-05-09T13:59:35.151Z,23.07
2024-05-09T14:02:08.460Z,23.36
2024-05-09T14:04:36.412Z,23.01
2024-05-09T14:07:07.617Z,22.25
2024-05-09T14:09:34.816Z,22.32
2024-05-09T14:12:04.821Z,21.75
2024-05-09T14:14:31.893Z,21.84
2024-05-09T14:17:01.806Z,22.08
2024-05-09T14:19:31.736Z,21.38
2024-05-09T14:22:01.383Z,21.47
2024-05-09T14:24:28.409Z,21.86
2024-05-09T14:26:59.553Z,21.65
2024-05-09T14:29:26.908Z,21.44
2024-05-09T14:31:56.496Z,20.48
2024-05-09T14:34:23.783Z,20.62
2024-05-09T14:36:58.765Z,20.38
2024-05-09T14:39:25.826Z,20.09
2024-05-09T14:41:55.837Z,19.89
2024-05-09T14:44:22.830Z,20.14
2024-05-09T14:46:52.662Z,19.16
2024-05-09T14:49:22.821Z,19.26
2024-05-09T14:51:50.713Z,20.46
2024-05-09T14:54:23.434Z,20.55
2024-05-09T14:56:51.297Z,19.28
2024-05-09T14:59:21.277Z,19.78
2024-05-09T15:01:48.558Z,21.19
2024-05-09T15:04:18.644Z,20.81
2024-05-09T15:06:48.369Z,20.68
2024-05-09T15:09:20.577Z,21.20
2024-05-09T15:11:50.214Z,21.02
2024-05-09T15:14:20.967Z,22.40
2024-05-09T15:16:49.391Z,23.48
2024-05-09T15:19:19.244Z,23.66
2024-05-09T15:21:46.363Z,24.35
2024-05-09T15:24:15.881Z,24.35
2024-05-09T15:26:42.937Z,25.03
2024-05-09T15:29:17.490Z,25.21
2024-05-09T15:31:44.653Z,25.26
2024-05-09T15:34:15.387Z,25.48
2024-05-09T15:36:43.427Z,24.27
2024-05-09T15:39:14.179Z,23.89
2024-05-09T15:41:42.103Z,23.38
2024-05-09T15:44:11.994Z,23.24
2024-05-09T15:46:41.788Z,22.83
2024-05-09T15:49:12.470Z,22.13
2024-05-09T15:51:39.929Z,22.29
2024-05-09T15:54:09.970Z,22.50
2024-05-09T15:56:37.398Z,22.29
2024-05-09T15:59:07.853Z,22.32
2024-05-09T16:01:35.382Z,23.23
2024-05-09T16:04:10.672Z,23.54
2024-05-09T16:06:37.935Z,24.45
2024-05-09T16:09:08.008Z,25.35
2024-05-09T16:11:35.180Z,26.85
2024-05-09T16:14:09.866Z,28.54
2024-05-09T16:16:37.052Z,30.05
2024-05-09T16:19:10.091Z,30.47
2024-05-09T16:21:37.652Z,31.09
2024-05-09T16:24:07.937Z,31.92
2024-05-09T16:26:35.405Z,32.55
2024-05-09T16:29:05.502Z,33.31
2024-05-09T16:31:32.998Z,34.15
2024-05-09T16:34:03.591Z,34.26
2024-05-09T16:36:33.570Z,35.21
2024-05-09T16:39:03.167Z,35.62
2024-05-09T16:41:30.237Z,36.31
2024-05-09T16:44:02.258Z,37.14
2024-05-09T16:46:29.281Z,37.37
2024-05-09T16:48:59.257Z,37.96
2024-05-09T16:51:26.286Z,38.30
2024-05-09T16:53:58.976Z,38.80
2024-05-09T16:56:27.928Z,39.46
2024-05-09T16:58:58.813Z,39.94
2024-05-09T17:01:27.733Z,40.50
2024-05-09T17:03:58.135Z,40.45
2024-05-09T17:06:26.112Z,40.65
2024-05-09T17:09:08.069Z,40.71
2024-05-09T17:11:39.799Z,40.58
2024-05-09T17:14:09.693Z,40.98
2024-05-09T17:16:40.188Z,41.70
2024-05-09T17:19:10.005Z,42.04
2024-05-09T17:21:38.390Z,42.88
2024-05-09T17:24:11.253Z,42.57
2024-05-09T17:26:38.290Z,42.97
2024-05-09T17:29:12.422Z,42.83
2024-05-09T17:31:39.602Z,43.03
2024-05-09T17:34:09.462Z,43.26
2024-05-09T17:36:36.907Z,43.15
2024-05-09T17:39:10.560Z,43.44
2024-05-09T17:41:37.686Z,43.70
2024-05-09T17:44:07.698Z,43.30
2024-05-09T17:46:34.949Z,43.47
2024-05-09T17:49:05.279Z,44.18
2024-05-09T17:51:32.658Z,44.52
2024-05-09T17:54:02.949Z,44.45
2024-05-09T17:56:32.769Z,44.62
2024-05-09T17:59:02.364Z,45.06
2024-05-09T18:01:29.410Z,45.38
2024-05-09T18:03:59.755Z,45.78
2024-05-09T18:06:27.552Z,46.16
2024-05-09T18:08:57.715Z,46.20
2024-05-09T18:11:25.492Z,46.69
2024-05-09T18:13:58.294Z,46.70
2024-05-09T18:16:28.444Z,47.10
2024-05-09T18:18:58.830Z,47.43
2024-05-09T18:21:26.357Z,47.41
2024-05-09T18:23:58.752Z,47.91
2024-05-09T18:26:27.529Z,47.81
2024-05-09T18:28:59.920Z,48.15
2024-05-09T18:31:26.987Z,48.17
2024-05-09T18:33:57.095Z,48.56
2024-05-09T18:36:28.355Z,48.74
2024-05-09T18:38:58.492Z,49.32
2024-05-09T18:41:25.741Z,49.74
2024-05-09T18:43:59.355Z,49.83
2024-05-09T18:46:26.934Z,50.30
2024-05-09T18:48:58.068Z,51.02
2024-05-09T18:51:25.240Z,51.67
2024-05-09T18:53:55.442Z,51.99
2024-05-09T18:56:22.956Z,52.29
2024-05-09T18:58:52.885Z,53.21
2024-05-09T19:01:22.853Z,53.51
2024-05-09T19:03:52.892Z,54.05
2024-05-09T19:06:23.913Z,54.91
2024-05-09T19:08:56.312Z,55.47
2024-05-09T19:11:23.305Z,56.09
2024-05-09T19:13:53.230Z,56.70
2024-05-09T19:16:23.544Z,57.18
2024-05-09T19:18:54.220Z,57.49
2024-05-09T19:21:21.299Z,57.64
2024-05-09T19:23:52.494Z,57.94
2024-05-09T19:26:19.755Z,58.25
2024-05-09T19:28:49.761Z,58.67
2024-05-09T19:31:16.893Z,59.00
2024-05-09T19:33:49.201Z,59.84
2024-05-09T19:36:18.528Z,60.04
2024-05-09T19:38:48.826Z,59.95
2024-05-09T19:41:15.942Z,60.52
2024-05-09T19:43:45.642Z,60.26
2024-05-09T19:46:12.884Z,61.33
2024-05-09T19:48:43.493Z,61.46
2024-05-09T19:51:13.288Z,61.91
2024-05-09T19:53:42.960Z,62.27
2024-05-09T19:56:09.920Z,62.07
2024-05-09T19:58:39.514Z,62.58
2024-05-09T20:01:06.652Z,62.15
2024-05-09T20:03:37.381Z,62.58
2024-05-09T20:06:05.109Z,62.82
2024-05-09T20:08:38.153Z,63.10
2024-05-09T20:11:05.846Z,63.64
2024-05-09T20:13:35.740Z,63.69
2024-05-09T20:16:04.495Z,64.26
2024-05-09T20:18:34.582Z,64.70
2024-05-09T20:21:02.642Z,64.88
2024-05-09T20:23:32.671Z,64.85
2024-05-09T20:26:02.447Z,65.37
2024-05-09T20:28:32.675Z,65.11
2024-05-09T20:30:59.869Z,65.25
2024-05-09T20:33:29.729Z,65.86
2024-05-09T20:36:01.618Z,66.03
2024-05-09T20:38:32.478Z,65.90
2024-05-09T20:41:02.631Z,66.26
2024-05-09T20:43:32.436Z,66.53
2024-05-09T20:46:00.241Z,66.24
2024-05-09T20:48:30.611Z,66.84
2024-05-09T20:50:57.904Z,66.67
2024-05-09T20:53:27.974Z,66.89
2024-05-09T20:55:54.903Z,67.65
2024-05-09T20:58:27.489Z,67.63
2024-05-09T21:00:54.613Z,68.24
2024-05-09T21:03:24.845Z,68.07
2024-05-09T21:05:52.491Z,68.31
2024-05-09T21:08:23.838Z,68.26
2024-05-09T21:10:51.085Z,67.86
2024-05-09T21:13:21.425Z,68.54
2024-05-09T21:15:51.705Z,68.62
2024-05-09T21:18:22.280Z,69.10
2024-05-09T21:20:49.956Z,68.99
2024-05-09T21:23:19.845Z,69.57
2024-05-09T21:25:47.222Z,69.78
2024-05-09T21:28:17.206Z,69.44
2024-05-09T21:30:44.601Z,70.16
2024-05-09T21:33:17.482Z,70.14
2024-05-09T21:35:45.137Z,69.81
2024-05-09T21:38:16.548Z,70.27
2024-05-09T21:40:44.238Z,70.50
2024-05-09T21:43:14.768Z,70.66
2024-05-09T21:45:42.639Z,71.16
2024-05-09T21:48:15.144Z,71.16
2024-05-09T21:50:45.330Z,70.83
2024-05-09T21:53:18.365Z,71.42
2024-05-09T21:55:46.435Z,71.67
2024-05-09T21:58:18.280Z,71.80
2024-05-09T22:00:46.572Z,72.13
2024-05-09T22:03:17.517Z,72.26
2024-05-09T22:05:47.274Z,72.19
2024-05-09T22:08:17.336Z,72.54
2024-05-09T22:10:44.530Z,72.50
2024-05-09T22:13:15.727Z,72.70
2024-05-09T22:15:43.285Z,73.02
2024-05-09T22:18:13.642Z,72.85
2024-05-09T22:20:45.577Z,73.41
2024-05-09T22:23:18.815Z,72.98
2024-05-09T22:25:46.051Z,73.55
2024-05-09T22:28:16.559Z,74.21
2024-05-09T22:30:46.508Z,73.95
2024-05-09T22:33:17.912Z,73.99
2024-05-09T22:35:45.400Z,74.33
2024-05-09T22:38:18.186Z,74.56
2024-05-09T22:40:48.589Z,74.53
2024-05-09T22:43:23.441Z,74.47
2024-05-09T22:45:52.447Z,74.71
2024-05-09T22:48:24.242Z,74.68
2024-05-09T22:50:52.063Z,74.94
2024-05-09T22:53:27.261Z,75.50
2024-05-09T22:55:54.543Z,75.32
2024-05-09T22:58:24.990Z,75.29
2024-05-09T23:00:52.727Z,75.53
2024-05-09T23:03:23.497Z,75.67
2024-05-09T23:05:50.550Z,75.86
2024-05-09T23:08:20.588Z,76.09
2024-05-09T23:10:50.788Z,76.16
2024-05-09T23:13:23.442Z,76.72
2024-05-09T23:15:50.802Z,76.78
2024-05-09T23:18:20.832Z,77.48
2024-05-09T23:20:48.230Z,76.90
2024-05-09T23:23:17.876Z,76.77
2024-05-09T23:25:45.248Z,76.79
2024-05-09T23:28:18.124Z,77.40
2024-05-09T23:30:45.241Z,77.22
2024-05-09T23:33:15.444Z,77.76
2024-05-09T23:35:44.173Z,77.17
2024-05-09T23:38:14.730Z,77.78
2024-05-09T23:40:42.844Z,77.75
2024-05-09T23:43:14.044Z,77.96
2024-05-09T23:45:44.137Z,78.32
2024-05-09T23:48:14.616Z,78.34
2024-05-09T23:50:42.256Z,78.63
2024-05-09T23:53:12.107Z,78.34
2024-05-09T23:55:39.818Z,78.55
2024-05-09T23:58:11.787Z,78.94
